Here is the Quick Look data you requested

The Data originates at the National Weather Service, and is made available here by the UAlbany Department of Atmospheric and Environmental Sciences

Surface Observations

KFVX 151955Z AUTO 20007KT 10SM CLR 35/21 A2991 RMK AO2 T03480208=
KFVX 152015Z AUTO 20010KT 10SM CLR 35/21 A2990 RMK AO2 T03460205=
KFVX 152035Z AUTO 19008KT 10SM CLR 35/20 A2990 RMK AO2 T03450203=
KFVX 152055Z AUTO 19008KT 10SM CLR 35/21 A2989 RMK AO2 T03460208=
KFVX 152115Z AUTO 19008KT 10SM CLR 35/21 A2989 RMK AO2 LTG DSNT NE T03450208=
KFVX 152135Z AUTO 19008KT 10SM CLR 34/21 A2988 RMK AO2 T03420214=
KFVX 152155Z AUTO 18010KT 10SM CLR 34/21 A2988 RMK AO2 T03390213=
KFVX 152215Z AUTO 20008KT 10SM CLR 34/21 A2988 RMK AO2 T03360210=
KFVX 152235Z AUTO 19007KT 10SM CLR 33/22 A2987 RMK AO2 T03300215=
KFVX 152255Z AUTO 20005KT 10SM CLR 32/22 A2986 RMK AO2 T03240219=
KFVX 152315Z AUTO 20003KT 10SM CLR 32/22 A2987 RMK AO2 T03170218=
KFVX 152355Z AUTO 19003KT 10SM CLR 30/22 A2989 RMK AO2 6//// T02990221=
KFVX 160035Z AUTO 17003KT 10SM CLR 29/22 A2990 RMK AO2 T02910222=
KFVX 160055Z AUTO 20003KT 10SM CLR 29/22 A2990 RMK AO2 T02850223=
KFVX 160115Z AUTO 00000KT 10SM CLR 28/22 A2991 RMK AO2 T02810222=
KFVX 160135Z AUTO 20003KT 10SM CLR 28/22 A2991 RMK AO2 T02780221=
KFVX 160155Z AUTO 21005KT 10SM CLR 28/22 A2991 RMK AO2 T02800220=
KFVX 160215Z AUTO 21004KT 10SM CLR 28/22 A2991 RMK AO2 T02810222=
KFVX 160235Z AUTO 22004KT 10SM CLR 28/22 A2991 RMK AO2 LTG DSNT W T02790224=
KFVX 160255Z AUTO 21004KT 10SM CLR 28/23 A2989 RMK AO2 T02750225=
KFVX 160315Z AUTO 21005KT 10SM CLR 27/23 A2989 RMK AO2 T02740225=
KFVX 160335Z AUTO 21005KT 10SM CLR 27/23 A2989 RMK AO2 T02710225=
KFVX 160355Z AUTO 21007KT 10SM CLR 27/23 A2989 RMK AO2 T02700225=
KFVX 160415Z AUTO 21007KT 10SM CLR 27/22 A2988 RMK AO2 T02700224=
KFVX 160435Z AUTO 21007KT 10SM CLR 27/22 A2988 RMK AO2 T02710223=
KFVX 160455Z AUTO 21005KT 10SM CLR 27/22 A2988 RMK AO2 T02700222=
KFVX 160515Z AUTO 21006KT 10SM CLR 27/22 A2988 RMK AO2 T02670222=
KFVX 160535Z AUTO 22005KT 10SM CLR 27/22 A2988 RMK AO2 T02660221=
KFVX 160555Z AUTO 21005KT 10SM CLR 26/22 A2988 RMK AO2 T02640220 10291 20264=
KFVX 160615Z AUTO 22004KT 10SM CLR 26/22 A2988 RMK AO2 T02600220=
KFVX 160635Z AUTO 21004KT 10SM CLR 26/22 A2988 RMK AO2 T02580220=
KFVX 160655Z AUTO 21004KT 10SM CLR 26/22 A2988 RMK AO2 T02560220=
KFVX 160715Z AUTO 21003KT 10SM CLR 25/22 A2988 RMK AO2 T02520220=
KFVX 160735Z AUTO 21003KT 10SM CLR 25/22 A2989 RMK AO2 T02480221=
KFVX 160755Z AUTO 21004KT 10SM CLR 25/22 A2989 RMK AO2 T02450221=
KFVX 160815Z AUTO 21003KT 10SM CLR 24/22 A2990 RMK AO2 T02390221=
KFVX 160835Z AUTO 20004KT 10SM CLR 24/22 A2990 RMK AO2 T02400221=
KFVX 160855Z AUTO 20003KT 10SM CLR 24/22 A2990 RMK AO2 T02350222=
KFVX 160915Z AUTO 20003KT 10SM CLR 24/22 A2990 RMK AO2 T02350222=
KFVX 160935Z AUTO 20004KT 10SM CLR 23/22 A2990 RMK AO2 T02330221=
KFVX 160955Z AUTO 20004KT 10SM CLR 23/22 A2990 RMK AO2 T02320221=
KFVX 161015Z AUTO 20005KT 10SM CLR 23/22 A2990 RMK AO2 T02290222=
KFVX 161035Z AUTO 20004KT 10SM CLR 23/22 A2990 RMK AO2 T02310223=
KFVX 161055Z AUTO 20004KT 10SM CLR 24/22 A2990 RMK AO2 T02370223=
KFVX 161115Z AUTO 20003KT 10SM CLR 24/23 A2991 RMK AO2 T02410225=
KFVX 161135Z AUTO 20003KT 10SM CLR 25/23 A2991 RMK AO2 T02490226=
KFVX 161155Z AUTO 21003KT 10SM CLR 25/23 A2993 RMK AO2 7//// T02510226 10263
 20228=
KFVX 161215Z AUTO 00000KT 10SM CLR 26/23 A2993 RMK AO2 T02600227=
KFVX 161235Z AUTO 20003KT 10SM CLR 27/23 A2993 RMK AO2 T02660226=
KFVX 161255Z AUTO 19004KT 10SM CLR 27/23 A2993 RMK AO2 T02710225=
KFVX 161315Z AUTO 21005KT 10SM CLR 28/23 A2993 RMK AO2 T02800227=
KFVX 161335Z AUTO 21003KT 10SM CLR 29/23 A2993 RMK AO2 T02860227=
KFVX 161355Z AUTO 20005KT 10SM CLR 29/23 A2993 RMK AO2 T02910229=
KFVX 161415Z AUTO 20004KT 10SM CLR 30/23 A2992 RMK AO2 T02950230=
KFVX 161435Z AUTO 19005KT 10SM CLR 30/23 A2992 RMK AO2 T03000234=
KFVX 161455Z AUTO 20006KT 10SM CLR 31/24 A2992 RMK AO2 LTG DSNT W T03060238=
KFVX 161515Z AUTO 22004KT 10SM CLR 32/23 A2993 RMK AO2 T03150233=
KFVX 161535Z AUTO 21005KT 10SM CLR 32/24 A2993 RMK AO2 T03200236=
KFVX 161555Z AUTO 20006KT 10SM CLR 33/24 A2992 RMK AO2 T03260237=
KFVX 161615Z AUTO 21005KT 10SM CLR 33/24 A2992 RMK AO2 T03340239=
KFVX 161635Z AUTO 20006KT 10SM CLR 34/23 A2991 RMK AO2 T03380228=
KFVX 161655Z AUTO 21004KT 10SM CLR 34/23 A2991 RMK AO2 T03410231=
KFVX 161715Z AUTO 20004KT 10SM CLR 34/22 A2990 RMK AO2 T03440220=
KFVX 161735Z AUTO 20005KT 10SM CLR 35/22 A2989 RMK AO2 T03460223=
KFVX 161755Z AUTO 20007G18KT 10SM CLR 35/23 A2988 RMK AO2 T03480227 10348 20251=
KFVX 161815Z AUTO 19011G14KT 10SM CLR 35/23 A2987 RMK AO2 T03500227=
KFVX 161835Z AUTO 19010KT 10SM CLR 35/23 A2986 RMK AO2 T03520230=
KFVX 161855Z AUTO 18011KT 10SM CLR 35/23 A2987 RMK AO2 LTG DSNT W T03530232=
KFVX 161915Z AUTO 20009KT 10SM CLR 35/22 A2986 RMK AO2 T03520222=
KFVX 161935Z AUTO 20010KT 10SM CLR 35/23 A2985 RMK AO2 T03530226=
KFVX 161955Z AUTO 20012KT 10SM CLR 35/23 A2985 RMK AO2 T03510225=
KFVX 162015Z AUTO 19011G15KT 10SM CLR 35/23 A2984 RMK AO2 T03510225=

Decoded Surface Observations


The weather observed at FARMVILLE, VA (KFVX) at 03:55 PM EDT was:
  The skies were clear.
  Temperature: 95F ( 35C)  Dewpoint:  70F ( 21C)  Relative Humidity:  44%
  Winds from the SSW(200 degs) at  8 mph.
  Altimeter:29.91 inches of mercury.
  The prevailing visibility was 10 miles.

The weather observed at FARMVILLE, VA (KFVX) at 04:15 PM EDT was:
  The skies were clear.
  Temperature: 95F ( 35C)  Dewpoint:  70F ( 21C)  Relative Humidity:  44%
  Winds from the SSW(200 degs) at 12 mph.
  Altimeter:29.90 inches of mercury.
  The prevailing visibility was 10 miles.

The weather observed at FARMVILLE, VA (KFVX) at 04:35 PM EDT was:
  The skies were clear.
  Temperature: 95F ( 35C)  Dewpoint:  68F ( 20C)  Relative Humidity:  42%
  Winds from the S  (190 degs) at  9 mph.
  Altimeter:29.90 inches of mercury.
  The prevailing visibility was 10 miles.

The weather observed at FARMVILLE, VA (KFVX) at 04:55 PM EDT was:
  The skies were clear.
  Temperature: 95F ( 35C)  Dewpoint:  70F ( 21C)  Relative Humidity:  44%
  Winds from the S  (190 degs) at  9 mph.
  Altimeter:29.89 inches of mercury.
  The prevailing visibility was 10 miles.

The weather observed at FARMVILLE, VA (KFVX) at 05:15 PM EDT was:
  The skies were clear.
  Temperature: 95F ( 35C)  Dewpoint:  70F ( 21C)  Relative Humidity:  44%
  Winds from the S  (190 degs) at  9 mph.
  Altimeter:29.89 inches of mercury.
  The prevailing visibility was 10 miles.

The weather observed at FARMVILLE, VA (KFVX) at 05:35 PM EDT was:
  The skies were clear.
  Temperature: 93F ( 34C)  Dewpoint:  70F ( 21C)  Relative Humidity:  47%
  Winds from the S  (190 degs) at  9 mph.
  Altimeter:29.88 inches of mercury.
  The prevailing visibility was 10 miles.

The weather observed at FARMVILLE, VA (KFVX) at 05:55 PM EDT was:
  The skies were clear.
  Temperature: 93F ( 34C)  Dewpoint:  70F ( 21C)  Relative Humidity:  47%
  Winds from the S  (180 degs) at 12 mph.
  Altimeter:29.88 inches of mercury.
  The prevailing visibility was 10 miles.

The weather observed at FARMVILLE, VA (KFVX) at 06:15 PM EDT was:
  The skies were clear.
  Temperature: 93F ( 34C)  Dewpoint:  70F ( 21C)  Relative Humidity:  47%
  Winds from the SSW(200 degs) at  9 mph.
  Altimeter:29.88 inches of mercury.
  The prevailing visibility was 10 miles.

The weather observed at FARMVILLE, VA (KFVX) at 06:35 PM EDT was:
  The skies were clear.
  Temperature: 91F ( 33C)  Dewpoint:  72F ( 22C)  Relative Humidity:  52%
  Winds from the S  (190 degs) at  8 mph.
  Altimeter:29.87 inches of mercury.
  The prevailing visibility was 10 miles.

The weather observed at FARMVILLE, VA (KFVX) at 06:55 PM EDT was:
  The skies were clear.
  Temperature: 90F ( 32C)  Dewpoint:  72F ( 22C)  Relative Humidity:  56%
  Winds from the SSW(200 degs) at  6 mph.
  Altimeter:29.86 inches of mercury.
  The prevailing visibility was 10 miles.

The weather observed at FARMVILLE, VA (KFVX) at 07:15 PM EDT was:
  The skies were clear.
  Temperature: 90F ( 32C)  Dewpoint:  72F ( 22C)  Relative Humidity:  56%
  Winds from the SSW(200 degs) at  3 mph.
  Altimeter:29.87 inches of mercury.
  The prevailing visibility was 10 miles.

The weather observed at FARMVILLE, VA (KFVX) at 07:55 PM EDT was:
  The skies were clear.
  Temperature: 86F ( 30C)  Dewpoint:  72F ( 22C)  Relative Humidity:  62%
  Winds from the S  (190 degs) at  3 mph.
  Altimeter:29.89 inches of mercury.
  The prevailing visibility was 10 miles.

The weather observed at FARMVILLE, VA (KFVX) at 08:35 PM EDT was:
  The skies were clear.
  Temperature: 84F ( 29C)  Dewpoint:  72F ( 22C)  Relative Humidity:  66%
  Winds from the S  (170 degs) at  3 mph.
  Altimeter:29.90 inches of mercury.
  The prevailing visibility was 10 miles.

The weather observed at FARMVILLE, VA (KFVX) at 08:55 PM EDT was:
  The skies were clear.
  Temperature: 84F ( 29C)  Dewpoint:  72F ( 22C)  Relative Humidity:  66%
  Winds from the SSW(200 degs) at  3 mph.
  Altimeter:29.90 inches of mercury.
  The prevailing visibility was 10 miles.

The weather observed at FARMVILLE, VA (KFVX) at 09:15 PM EDT was:
  The skies were clear.
  Temperature: 82F ( 28C)  Dewpoint:  72F ( 22C)  Relative Humidity:  70%
  Winds from the CLM(CLM degs) at  0 mph.
  Altimeter:29.91 inches of mercury.
  The prevailing visibility was 10 miles.

The weather observed at FARMVILLE, VA (KFVX) at 09:35 PM EDT was:
  The skies were clear.
  Temperature: 82F ( 28C)  Dewpoint:  72F ( 22C)  Relative Humidity:  70%
  Winds from the SSW(200 degs) at  3 mph.
  Altimeter:29.91 inches of mercury.
  The prevailing visibility was 10 miles.

The weather observed at FARMVILLE, VA (KFVX) at 09:55 PM EDT was:
  The skies were clear.
  Temperature: 82F ( 28C)  Dewpoint:  72F ( 22C)  Relative Humidity:  70%
  Winds from the SW (210 degs) at  6 mph.
  Altimeter:29.91 inches of mercury.
  The prevailing visibility was 10 miles.

The weather observed at FARMVILLE, VA (KFVX) at 10:15 PM EDT was:
  The skies were clear.
  Temperature: 82F ( 28C)  Dewpoint:  72F ( 22C)  Relative Humidity:  70%
  Winds from the SW (210 degs) at  5 mph.
  Altimeter:29.91 inches of mercury.
  The prevailing visibility was 10 miles.

The weather observed at FARMVILLE, VA (KFVX) at 10:35 PM EDT was:
  The skies were clear.
  Temperature: 82F ( 28C)  Dewpoint:  72F ( 22C)  Relative Humidity:  70%
  Winds from the SW (220 degs) at  5 mph.
  Altimeter:29.91 inches of mercury.
  The prevailing visibility was 10 miles.

The weather observed at FARMVILLE, VA (KFVX) at 10:55 PM EDT was:
  The skies were clear.
  Temperature: 82F ( 28C)  Dewpoint:  73F ( 23C)  Relative Humidity:  74%
  Winds from the SW (210 degs) at  5 mph.
  Altimeter:29.89 inches of mercury.
  The prevailing visibility was 10 miles.

The weather observed at FARMVILLE, VA (KFVX) at 11:15 PM EDT was:
  The skies were clear.
  Temperature: 81F ( 27C)  Dewpoint:  73F ( 23C)  Relative Humidity:  79%
  Winds from the SW (210 degs) at  6 mph.
  Altimeter:29.89 inches of mercury.
  The prevailing visibility was 10 miles.

The weather observed at FARMVILLE, VA (KFVX) at 11:35 PM EDT was:
  The skies were clear.
  Temperature: 81F ( 27C)  Dewpoint:  73F ( 23C)  Relative Humidity:  79%
  Winds from the SW (210 degs) at  6 mph.
  Altimeter:29.89 inches of mercury.
  The prevailing visibility was 10 miles.

The weather observed at FARMVILLE, VA (KFVX) at 11:55 PM EDT was:
  The skies were clear.
  Temperature: 81F ( 27C)  Dewpoint:  73F ( 23C)  Relative Humidity:  79%
  Winds from the SW (210 degs) at  8 mph.
  Altimeter:29.89 inches of mercury.
  The prevailing visibility was 10 miles.

The weather observed at FARMVILLE, VA (KFVX) at 12:15 AM EDT was:
  The skies were clear.
  Temperature: 81F ( 27C)  Dewpoint:  72F ( 22C)  Relative Humidity:  74%
  Winds from the SW (210 degs) at  8 mph.
  Altimeter:29.88 inches of mercury.
  The prevailing visibility was 10 miles.

The weather observed at FARMVILLE, VA (KFVX) at 12:35 AM EDT was:
  The skies were clear.
  Temperature: 81F ( 27C)  Dewpoint:  72F ( 22C)  Relative Humidity:  74%
  Winds from the SW (210 degs) at  8 mph.
  Altimeter:29.88 inches of mercury.
  The prevailing visibility was 10 miles.

The weather observed at FARMVILLE, VA (KFVX) at 12:55 AM EDT was:
  The skies were clear.
  Temperature: 81F ( 27C)  Dewpoint:  72F ( 22C)  Relative Humidity:  74%
  Winds from the SW (210 degs) at  6 mph.
  Altimeter:29.88 inches of mercury.
  The prevailing visibility was 10 miles.

The weather observed at FARMVILLE, VA (KFVX) at 01:15 AM EDT was:
  The skies were clear.
  Temperature: 81F ( 27C)  Dewpoint:  72F ( 22C)  Relative Humidity:  74%
  Winds from the SW (210 degs) at  7 mph.
  Altimeter:29.88 inches of mercury.
  The prevailing visibility was 10 miles.

The weather observed at FARMVILLE, VA (KFVX) at 01:35 AM EDT was:
  The skies were clear.
  Temperature: 81F ( 27C)  Dewpoint:  72F ( 22C)  Relative Humidity:  74%
  Winds from the SW (220 degs) at  6 mph.
  Altimeter:29.88 inches of mercury.
  The prevailing visibility was 10 miles.

The weather observed at FARMVILLE, VA (KFVX) at 01:55 AM EDT was:
  The skies were clear.
  Temperature: 80F ( 26C)  Dewpoint:  72F ( 22C)  Relative Humidity:  77%
  Winds from the SW (210 degs) at  6 mph.
  Altimeter:29.88 inches of mercury.
  The prevailing visibility was 10 miles.
  The maximum temperature in the past 6 hours was  84F.

The weather observed at FARMVILLE, VA (KFVX) at 02:15 AM EDT was:
  The skies were clear.
  Temperature: 79F ( 26C)  Dewpoint:  72F ( 22C)  Relative Humidity:  79%
  Winds from the SW (220 degs) at  5 mph.
  Altimeter:29.88 inches of mercury.
  The prevailing visibility was 10 miles.

The weather observed at FARMVILLE, VA (KFVX) at 02:35 AM EDT was:
  The skies were clear.
  Temperature: 79F ( 26C)  Dewpoint:  72F ( 22C)  Relative Humidity:  79%
  Winds from the SW (210 degs) at  5 mph.
  Altimeter:29.88 inches of mercury.
  The prevailing visibility was 10 miles.

The weather observed at FARMVILLE, VA (KFVX) at 02:55 AM EDT was:
  The skies were clear.
  Temperature: 79F ( 26C)  Dewpoint:  72F ( 22C)  Relative Humidity:  79%
  Winds from the SW (210 degs) at  5 mph.
  Altimeter:29.88 inches of mercury.
  The prevailing visibility was 10 miles.

The weather observed at FARMVILLE, VA (KFVX) at 03:15 AM EDT was:
  The skies were clear.
  Temperature: 77F ( 25C)  Dewpoint:  72F ( 22C)  Relative Humidity:  83%
  Winds from the SW (210 degs) at  3 mph.
  Altimeter:29.88 inches of mercury.
  The prevailing visibility was 10 miles.

The weather observed at FARMVILLE, VA (KFVX) at 03:35 AM EDT was:
  The skies were clear.
  Temperature: 77F ( 25C)  Dewpoint:  72F ( 22C)  Relative Humidity:  83%
  Winds from the SW (210 degs) at  3 mph.
  Altimeter:29.89 inches of mercury.
  The prevailing visibility was 10 miles.

The weather observed at FARMVILLE, VA (KFVX) at 03:55 AM EDT was:
  The skies were clear.
  Temperature: 77F ( 25C)  Dewpoint:  72F ( 22C)  Relative Humidity:  83%
  Winds from the SW (210 degs) at  5 mph.
  Altimeter:29.89 inches of mercury.
  The prevailing visibility was 10 miles.

The weather observed at FARMVILLE, VA (KFVX) at 04:15 AM EDT was:
  The skies were clear.
  Temperature: 75F ( 24C)  Dewpoint:  72F ( 22C)  Relative Humidity:  89%
  Winds from the SW (210 degs) at  3 mph.
  Altimeter:29.90 inches of mercury.
  The prevailing visibility was 10 miles.

The weather observed at FARMVILLE, VA (KFVX) at 04:35 AM EDT was:
  The skies were clear.
  Temperature: 75F ( 24C)  Dewpoint:  72F ( 22C)  Relative Humidity:  89%
  Winds from the SSW(200 degs) at  5 mph.
  Altimeter:29.90 inches of mercury.
  The prevailing visibility was 10 miles.

The weather observed at FARMVILLE, VA (KFVX) at 04:55 AM EDT was:
  The skies were clear.
  Temperature: 75F ( 24C)  Dewpoint:  72F ( 22C)  Relative Humidity:  89%
  Winds from the SSW(200 degs) at  3 mph.
  Altimeter:29.90 inches of mercury.
  The prevailing visibility was 10 miles.

The weather observed at FARMVILLE, VA (KFVX) at 05:15 AM EDT was:
  The skies were clear.
  Temperature: 75F ( 24C)  Dewpoint:  72F ( 22C)  Relative Humidity:  89%
  Winds from the SSW(200 degs) at  3 mph.
  Altimeter:29.90 inches of mercury.
  The prevailing visibility was 10 miles.

The weather observed at FARMVILLE, VA (KFVX) at 05:35 AM EDT was:
  The skies were clear.
  Temperature: 73F ( 23C)  Dewpoint:  72F ( 22C)  Relative Humidity:  94%
  Winds from the SSW(200 degs) at  5 mph.
  Altimeter:29.90 inches of mercury.
  The prevailing visibility was 10 miles.

The weather observed at FARMVILLE, VA (KFVX) at 05:55 AM EDT was:
  The skies were clear.
  Temperature: 73F ( 23C)  Dewpoint:  72F ( 22C)  Relative Humidity:  94%
  Winds from the SSW(200 degs) at  5 mph.
  Altimeter:29.90 inches of mercury.
  The prevailing visibility was 10 miles.

The weather observed at FARMVILLE, VA (KFVX) at 06:15 AM EDT was:
  The skies were clear.
  Temperature: 73F ( 23C)  Dewpoint:  72F ( 22C)  Relative Humidity:  94%
  Winds from the SSW(200 degs) at  6 mph.
  Altimeter:29.90 inches of mercury.
  The prevailing visibility was 10 miles.

The weather observed at FARMVILLE, VA (KFVX) at 06:35 AM EDT was:
  The skies were clear.
  Temperature: 73F ( 23C)  Dewpoint:  72F ( 22C)  Relative Humidity:  94%
  Winds from the SSW(200 degs) at  5 mph.
  Altimeter:29.90 inches of mercury.
  The prevailing visibility was 10 miles.

The weather observed at FARMVILLE, VA (KFVX) at 06:55 AM EDT was:
  The skies were clear.
  Temperature: 75F ( 24C)  Dewpoint:  72F ( 22C)  Relative Humidity:  89%
  Winds from the SSW(200 degs) at  5 mph.
  Altimeter:29.90 inches of mercury.
  The prevailing visibility was 10 miles.

The weather observed at FARMVILLE, VA (KFVX) at 07:15 AM EDT was:
  The skies were clear.
  Temperature: 75F ( 24C)  Dewpoint:  73F ( 23C)  Relative Humidity:  94%
  Winds from the SSW(200 degs) at  3 mph.
  Altimeter:29.91 inches of mercury.
  The prevailing visibility was 10 miles.

The weather observed at FARMVILLE, VA (KFVX) at 07:35 AM EDT was:
  The skies were clear.
  Temperature: 77F ( 25C)  Dewpoint:  73F ( 23C)  Relative Humidity:  89%
  Winds from the SSW(200 degs) at  3 mph.
  Altimeter:29.91 inches of mercury.
  The prevailing visibility was 10 miles.

The weather observed at FARMVILLE, VA (KFVX) at 07:55 AM EDT was:
  The skies were clear.
  Temperature: 77F ( 25C)  Dewpoint:  73F ( 23C)  Relative Humidity:  86%
  Winds from the SW (210 degs) at  3 mph.
  Altimeter:29.93 inches of mercury.
  The prevailing visibility was 10 miles.
  The maximum temperature in the past 6 hours was  79F.

The weather observed at FARMVILLE, VA (KFVX) at 08:15 AM EDT was:
  The skies were clear.
  Temperature: 79F ( 26C)  Dewpoint:  73F ( 23C)  Relative Humidity:  84%
  Winds from the CLM(CLM degs) at  0 mph.
  Altimeter:29.93 inches of mercury.
  The prevailing visibility was 10 miles.

The weather observed at FARMVILLE, VA (KFVX) at 08:35 AM EDT was:
  The skies were clear.
  Temperature: 81F ( 27C)  Dewpoint:  73F ( 23C)  Relative Humidity:  79%
  Winds from the SSW(200 degs) at  3 mph.
  Altimeter:29.93 inches of mercury.
  The prevailing visibility was 10 miles.

The weather observed at FARMVILLE, VA (KFVX) at 08:55 AM EDT was:
  The skies were clear.
  Temperature: 81F ( 27C)  Dewpoint:  73F ( 23C)  Relative Humidity:  79%
  Winds from the S  (190 degs) at  5 mph.
  Altimeter:29.93 inches of mercury.
  The prevailing visibility was 10 miles.

The weather observed at FARMVILLE, VA (KFVX) at 09:15 AM EDT was:
  The skies were clear.
  Temperature: 82F ( 28C)  Dewpoint:  73F ( 23C)  Relative Humidity:  74%
  Winds from the SW (210 degs) at  6 mph.
  Altimeter:29.93 inches of mercury.
  The prevailing visibility was 10 miles.

The weather observed at FARMVILLE, VA (KFVX) at 09:35 AM EDT was:
  The skies were clear.
  Temperature: 84F ( 29C)  Dewpoint:  73F ( 23C)  Relative Humidity:  70%
  Winds from the SW (210 degs) at  3 mph.
  Altimeter:29.93 inches of mercury.
  The prevailing visibility was 10 miles.

The weather observed at FARMVILLE, VA (KFVX) at 09:55 AM EDT was:
  The skies were clear.
  Temperature: 84F ( 29C)  Dewpoint:  73F ( 23C)  Relative Humidity:  70%
  Winds from the SSW(200 degs) at  6 mph.
  Altimeter:29.93 inches of mercury.
  The prevailing visibility was 10 miles.

The weather observed at FARMVILLE, VA (KFVX) at 10:15 AM EDT was:
  The skies were clear.
  Temperature: 86F ( 30C)  Dewpoint:  73F ( 23C)  Relative Humidity:  66%
  Winds from the SSW(200 degs) at  5 mph.
  Altimeter:29.92 inches of mercury.
  The prevailing visibility was 10 miles.

The weather observed at FARMVILLE, VA (KFVX) at 10:35 AM EDT was:
  The skies were clear.
  Temperature: 86F ( 30C)  Dewpoint:  73F ( 23C)  Relative Humidity:  66%
  Winds from the S  (190 degs) at  6 mph.
  Altimeter:29.92 inches of mercury.
  The prevailing visibility was 10 miles.

The weather observed at FARMVILLE, VA (KFVX) at 10:55 AM EDT was:
  The skies were clear.
  Temperature: 88F ( 31C)  Dewpoint:  75F ( 24C)  Relative Humidity:  66%
  Winds from the SSW(200 degs) at  7 mph.
  Altimeter:29.92 inches of mercury.
  The prevailing visibility was 10 miles.

The weather observed at FARMVILLE, VA (KFVX) at 11:15 AM EDT was:
  The skies were clear.
  Temperature: 90F ( 32C)  Dewpoint:  73F ( 23C)  Relative Humidity:  59%
  Winds from the SW (220 degs) at  5 mph.
  Altimeter:29.93 inches of mercury.
  The prevailing visibility was 10 miles.

The weather observed at FARMVILLE, VA (KFVX) at 11:35 AM EDT was:
  The skies were clear.
  Temperature: 90F ( 32C)  Dewpoint:  75F ( 24C)  Relative Humidity:  63%
  Winds from the SW (210 degs) at  6 mph.
  Altimeter:29.93 inches of mercury.
  The prevailing visibility was 10 miles.

The weather observed at FARMVILLE, VA (KFVX) at 11:55 AM EDT was:
  The skies were clear.
  Temperature: 91F ( 33C)  Dewpoint:  75F ( 24C)  Relative Humidity:  59%
  Winds from the SSW(200 degs) at  7 mph.
  Altimeter:29.92 inches of mercury.
  The prevailing visibility was 10 miles.

The weather observed at FARMVILLE, VA (KFVX) at 12:15 PM EDT was:
  The skies were clear.
  Temperature: 91F ( 33C)  Dewpoint:  75F ( 24C)  Relative Humidity:  59%
  Winds from the SW (210 degs) at  6 mph.
  Altimeter:29.92 inches of mercury.
  The prevailing visibility was 10 miles.

The weather observed at FARMVILLE, VA (KFVX) at 12:35 PM EDT was:
  The skies were clear.
  Temperature: 93F ( 34C)  Dewpoint:  73F ( 23C)  Relative Humidity:  53%
  Winds from the SSW(200 degs) at  7 mph.
  Altimeter:29.91 inches of mercury.
  The prevailing visibility was 10 miles.

The weather observed at FARMVILLE, VA (KFVX) at 12:55 PM EDT was:
  The skies were clear.
  Temperature: 93F ( 34C)  Dewpoint:  73F ( 23C)  Relative Humidity:  53%
  Winds from the SW (210 degs) at  5 mph.
  Altimeter:29.91 inches of mercury.
  The prevailing visibility was 10 miles.

The weather observed at FARMVILLE, VA (KFVX) at 01:15 PM EDT was:
  The skies were clear.
  Temperature: 93F ( 34C)  Dewpoint:  72F ( 22C)  Relative Humidity:  50%
  Winds from the SSW(200 degs) at  5 mph.
  Altimeter:29.90 inches of mercury.
  The prevailing visibility was 10 miles.

The weather observed at FARMVILLE, VA (KFVX) at 01:35 PM EDT was:
  The skies were clear.
  Temperature: 95F ( 35C)  Dewpoint:  72F ( 22C)  Relative Humidity:  47%
  Winds from the SSW(200 degs) at  6 mph.
  Altimeter:29.89 inches of mercury.
  The prevailing visibility was 10 miles.

The weather observed at FARMVILLE, VA (KFVX) at 01:55 PM EDT was:
  The skies were clear.
  Temperature: 95F ( 35C)  Dewpoint:  73F ( 23C)  Relative Humidity:  50%
  Winds from the SSW(200 degs) at  8 mph.
  Altimeter:29.88 inches of mercury.
  The prevailing visibility was 10 miles.
  The maximum temperature in the past 6 hours was  95F.

The weather observed at FARMVILLE, VA (KFVX) at 02:15 PM EDT was:
  The skies were clear.
  Temperature: 95F ( 35C)  Dewpoint:  73F ( 23C)  Relative Humidity:  50%
  Winds from the S  (190 degs) at 13 mph.
  Altimeter:29.87 inches of mercury.
  The prevailing visibility was 10 miles.

The weather observed at FARMVILLE, VA (KFVX) at 02:35 PM EDT was:
  The skies were clear.
  Temperature: 95F ( 35C)  Dewpoint:  73F ( 23C)  Relative Humidity:  50%
  Winds from the S  (190 degs) at 12 mph.
  Altimeter:29.86 inches of mercury.
  The prevailing visibility was 10 miles.

The weather observed at FARMVILLE, VA (KFVX) at 02:55 PM EDT was:
  The skies were clear.
  Temperature: 95F ( 35C)  Dewpoint:  73F ( 23C)  Relative Humidity:  50%
  Winds from the S  (180 degs) at 13 mph.
  Altimeter:29.87 inches of mercury.
  The prevailing visibility was 10 miles.

The weather observed at FARMVILLE, VA (KFVX) at 03:15 PM EDT was:
  The skies were clear.
  Temperature: 95F ( 35C)  Dewpoint:  72F ( 22C)  Relative Humidity:  47%
  Winds from the SSW(200 degs) at 10 mph.
  Altimeter:29.86 inches of mercury.
  The prevailing visibility was 10 miles.

The weather observed at FARMVILLE, VA (KFVX) at 03:35 PM EDT was:
  The skies were clear.
  Temperature: 95F ( 35C)  Dewpoint:  73F ( 23C)  Relative Humidity:  50%
  Winds from the SSW(200 degs) at 12 mph.
  Altimeter:29.85 inches of mercury.
  The prevailing visibility was 10 miles.

The weather observed at FARMVILLE, VA (KFVX) at 03:55 PM EDT was:
  The skies were clear.
  Temperature: 95F ( 35C)  Dewpoint:  73F ( 23C)  Relative Humidity:  50%
  Winds from the SSW(200 degs) at 14 mph.
  Altimeter:29.85 inches of mercury.
  The prevailing visibility was 10 miles.

The weather observed at FARMVILLE, VA (KFVX) at 04:15 PM EDT was:
  The skies were clear.
  Temperature: 95F ( 35C)  Dewpoint:  73F ( 23C)  Relative Humidity:  50%
  Winds from the S  (190 degs) at 13 mph.
  Altimeter:29.84 inches of mercury.
  The prevailing visibility was 10 miles.

Short Range Forecast

Sorry no data found for fvx
Make sure fvx is a valid station
You might need to specify a nearby major city
Try Again

Zone Forecast

VAZ061-170200-
Cumberland-
Including the cities of Angola, Guinea Mills, Hawk,
Raines Tavern, Reeds, and Stoddert
245 PM EDT Tue Jul 16 2024

...HEAT ADVISORY REMAINS IN EFFECT UNTIL 8 PM EDT THIS EVENING...
...HEAT ADVISORY IN EFFECT FROM 11 AM TO 8 PM EDT WEDNESDAY...

.THIS AFTERNOON...Mostly sunny with a chance of showers and
thunderstorms. Highs around 100. Southwest winds around 10 mph
with gusts up to 20 mph. Chance of rain 30 percent. Heat index
values up to 107.
.TONIGHT...Partly cloudy. A chance of showers and thunderstorms
in the evening. Lows in the mid 70s. Southwest winds 5 to 10 mph.
Chance of rain 30 percent. Heat index values up to 104 early in
the evening.
.WEDNESDAY...Mostly sunny in the morning, then mostly cloudy with
showers and thunderstorms likely in the afternoon. Hot with highs
in the mid 90s. Southwest winds 5 to 10 mph. Chance of rain
70 percent. Heat index values up to 106.
.WEDNESDAY NIGHT...Mostly cloudy with a chance of showers.
Thunderstorms likely, mainly in the evening. Humid with lows in
the lower 70s. Southwest winds 5 to 10 mph. Chance of rain
70 percent.
.THURSDAY...Mostly cloudy with a chance of showers and
thunderstorms. Highs in the mid 80s. Northwest winds around
5 mph, becoming north in the afternoon. Chance of rain
50 percent.
.THURSDAY NIGHT...Mostly cloudy. A chance of showers and
thunderstorms in the evening. Lows in the mid 60s. Chance of rain
50 percent.
.FRIDAY...Partly sunny. Highs in the lower 80s.
.FRIDAY NIGHT...Partly cloudy in the evening, then becoming
mostly cloudy. Lows in the upper 60s.
.SATURDAY...Mostly cloudy with a chance of showers. A chance of
thunderstorms in the afternoon. Highs in the mid 80s. Chance of
rain 50 percent.
.SATURDAY NIGHT...Mostly cloudy with a chance of showers and
thunderstorms. Lows in the upper 60s. Chance of rain 50 percent.
.SUNDAY...Mostly cloudy in the morning, then partly sunny with a
chance of showers and thunderstorms in the afternoon. Highs in
the upper 80s. Chance of rain 40 percent.
.SUNDAY NIGHT...Partly cloudy in the evening, then becoming
mostly cloudy. A chance of thunderstorms in the evening. A chance
of showers. Lows in the upper 60s. Chance of rain 40 percent.
.MONDAY...Mostly cloudy. A chance of showers and thunderstorms in
the afternoon. Highs in the upper 80s. Chance of rain 50 percent.


State Forecast

Sorry no data found for fvx
Make sure fvx is a valid station
You might need to specify a nearby major city
Try Again

State Forecast Discussion

Sorry no data found for fvx
Make sure fvx is a valid station
You might need to specify a nearby major city
Try Again

GFS Short-Range Model Output Statistics (MOS) Forecast

KFVX   GFS MOS GUIDANCE    7/16/2024  1200 UTC
DT /JULY 16/JULY 17                /JULY 18                /JULY 19
HR   18 21 00 03 06 09 12 15 18 21 00 03 06 09 12 15 18 21 00 06 12
N/X                    73          94          71          86    65
TMP  95 96 87 81 78 75 79 90 92 90 82 77 74 73 75 79 82 82 74 68 69
DPT  73 72 72 71 71 70 72 73 72 73 74 73 72 71 72 72 71 71 73 68 67
CLD  SC FW FW BK SC SC SC FW BK OV OV OV OV OV OV OV OV OV OV OV BK
WDR  21 21 20 21 20 20 21 21 21 21 20 20 22 26 02 04 04 06 03 00 02
WSP  07 09 08 05 02 02 04 06 08 10 04 03 02 01 01 03 03 03 01 00 04
P06         1     5     9     2    53    36    25    29    39 29 11
P12                     9          63          50          56    33
Q06         0     0     0     0     3     1     0     0     1  0  0
Q12                     0           2           1           1     0
T06     26/22 15/ 8  2/ 1  4/ 6 54/32 22/ 6 10/ 2 13/ 4 32/18  3/ 0
T12           36/22        4/ 7       57/32       18/ 5    37/18
CIG   8  8  8  8  8  8  8  8  8  8  7  8  7  2  4  5  6  7  8  7  8
VIS   7  7  7  7  7  7  7  7  7  7  7  7  5  5  6  7  7  7  7  2  7
OBV   N  N  N  N  N  N  N  N  N  N  N  N BR BR  N  N  N  N  N FG  N

GFS Long-Range Model Output Statistics (MOS) Forecast

KFVX   GFSX MOS GUIDANCE   7/16/2024  1200 UTC
FHR  24  36| 48  60| 72  84| 96 108|120 132|144 156|168 180|192
     WED 17| THU 18| FRI 19| SAT 20| SUN 21| MON 22| TUE 23|WED CLIMO
N/X  73  94| 71  86| 65  85| 66  87| 66  89| 68  88| 68  89| 69 65 89
TMP  79  82| 75  74| 69  74| 71  75| 72  77| 73  76| 72  78| 74
DPT  72  74| 72  73| 67  69| 68  72| 70  72| 70  71| 69  72| 71
CLD  PC  OV| OV  OV| OV  PC| OV  OV| OV  OV| OV  OV| OV  PC| PC
WND   8  10|  4   3|  4   5|  2   5|  2   4|  2   4|  2   8|  5
P12   9  63| 50  56| 33  20| 17  41| 31  40| 36  40| 32  37| 29999999
P24      63|     66|     41|     41|     50|     58|     58|      999
Q12   0   2|  1   1|  0   0|  0   1|  0   1|  1   3|       |
Q24       2|      2|      0|      0|      1|      4|       |
T12  15  54| 25  37| 22  18|  6  30| 17  38| 24  37| 21  34| 16
T24        | 54    | 40    | 18    | 39    | 49    | 39    | 35

NGM Model Output Statistics (MOS) Forecast

Climatological Summary

Sorry no data found for fvx
Make sure fvx is a valid station
You might need to specify a nearby major city
Try Again

Watch and Warning Statment

Sorry no data found for fvx
Make sure fvx is a valid station
You might need to specify a nearby major city
or it could be THERE ARE NO WATCHES OR WARNINGS for fvx
Try Again

Park/Ski Recreation Report/Forecast

Sorry no data found for fvx
Make sure fvx is a valid station
You might need to specify a nearby major city
Try Again